Time;durP1;ratioP1;P1;durP2;ratioP2;P2;SDS_P1;SDS_P2;PMS_P1;PMS_P2;Temp;Humidity;BMP_temperature;BMP_pressure;BME280_temperature;BME280_humidity;BME280_pressure;Samples;Min_cycle;Max_cycle;Signal;HPM_P1;HPM_P2
2019/06/10 00:01:39;;;;;;;9.7;6.8;;;;;;;;;;;;;
2019/06/10 00:04:04;;;;;;;9.4;7.1;;;;;;;;;;;;;
2019/06/10 00:06:29;;;;;;;10.2;7.6;;;;;;;;;;;;;
2019/06/10 00:08:55;;;;;;;10.4;7.8;;;;;;;;;;;;;
2019/06/10 00:11:20;;;;;;;11.4;7.1;;;;;;;;;;;;;
2019/06/10 00:13:45;;;;;;;9.7;7.5;;;;;;;;;;;;;
2019/06/10 00:16:10;;;;;;;11.4;8;;;;;;;;;;;;;
2019/06/10 00:18:35;;;;;;;9.9;8.1;;;;;;;;;;;;;
2019/06/10 00:21:00;;;;;;;10.3;7.8;;;;;;;;;;;;;
2019/06/10 00:23:26;;;;;;;9.8;7.5;;;;;;;;;;;;;
2019/06/10 00:25:51;;;;;;;8.4;7.2;;;;;;;;;;;;;
2019/06/10 00:28:16;;;;;;;9.6;7.7;;;;;;;;;;;;;
2019/06/10 00:30:41;;;;;;;11.1;8;;;;;;;;;;;;;
2019/06/10 00:33:09;;;;;;;11.4;8.5;;;;;;;;;;;;;
2019/06/10 00:35:34;;;;;;;12.5;8.2;;;;;;;;;;;;;
2019/06/10 00:37:59;;;;;;;11;8.1;;;;;;;;;;;;;
2019/06/10 00:40:24;;;;;;;11.6;8.6;;;;;;;;;;;;;
2019/06/10 00:42:49;;;;;;;11.4;8;;;;;;;;;;;;;
2019/06/10 00:45:14;;;;;;;10.8;8.7;;;;;;;;;;;;;
2019/06/10 00:47:42;;;;;;;10.2;7.5;;;;;;;;;;;;;
2019/06/10 00:50:08;;;;;;;10.7;8.1;;;;;;;;;;;;;
2019/06/10 00:52:32;;;;;;;12.7;8.2;;;;;;;;;;;;;
2019/06/10 00:54:59;;;;;;;10.9;7.6;;;;;;;;;;;;;
2019/06/10 00:57:24;;;;;;;8.1;6.9;;;;;;;;;;;;;
2019/06/10 00:59:49;;;;;;;9.7;6.9;;;;;;;;;;;;;
2019/06/10 01:02:14;;;;;;;10.6;7.3;;;;;;;;;;;;;
2019/06/10 01:04:39;;;;;;;11.9;7.2;;;;;;;;;;;;;
2019/06/10 01:07:05;;;;;;;10.6;7.3;;;;;;;;;;;;;
2019/06/10 01:09:30;;;;;;;9.5;6.6;;;;;;;;;;;;;
2019/06/10 01:11:55;;;;;;;8.1;6.2;;;;;;;;;;;;;
2019/06/10 01:14:20;;;;;;;8.4;6.2;;;;;;;;;;;;;
2019/06/10 01:16:45;;;;;;;8.3;6.6;;;;;;;;;;;;;
2019/06/10 01:19:12;;;;;;;8.6;6.5;;;;;;;;;;;;;
2019/06/10 01:21:38;;;;;;;8.1;6.4;;;;;;;;;;;;;
2019/06/10 01:24:03;;;;;;;9.8;6.6;;;;;;;;;;;;;
2019/06/10 01:26:29;;;;;;;9.9;6.9;;;;;;;;;;;;;
2019/06/10 01:28:53;;;;;;;10;7.4;;;;;;;;;;;;;
2019/06/10 01:31:19;;;;;;;9.1;7.4;;;;;;;;;;;;;
2019/06/10 01:33:44;;;;;;;9.8;7.9;;;;;;;;;;;;;
2019/06/10 01:36:09;;;;;;;10.3;8.2;;;;;;;;;;;;;
2019/06/10 01:38:35;;;;;;;10.1;7.8;;;;;;;;;;;;;
2019/06/10 01:41:00;;;;;;;9.5;7;;;;;;;;;;;;;
2019/06/10 01:43:26;;;;;;;9.6;7;;;;;;;;;;;;;
2019/06/10 01:45:51;;;;;;;8;6.7;;;;;;;;;;;;;
2019/06/10 01:48:17;;;;;;;9.6;7.2;;;;;;;;;;;;;
2019/06/10 01:50:43;;;;;;;10;7.4;;;;;;;;;;;;;
2019/06/10 01:53:08;;;;;;;9.5;7;;;;;;;;;;;;;
2019/06/10 01:55:33;;;;;;;9.7;7.5;;;;;;;;;;;;;
2019/06/10 01:57:59;;;;;;;9.7;7.8;;;;;;;;;;;;;
2019/06/10 02:00:32;;;;;;;10.5;7.8;;;;;;;;;;;;;
2019/06/10 02:02:49;;;;;;;8.2;6.7;;;;;;;;;;;;;
2019/06/10 02:05:14;;;;;;;8;6.6;;;;;;;;;;;;;
2019/06/10 02:07:39;;;;;;;9.8;7.5;;;;;;;;;;;;;
2019/06/10 02:10:05;;;;;;;10.5;8.7;;;;;;;;;;;;;
2019/06/10 02:12:32;;;;;;;15;9.7;;;;;;;;;;;;;
2019/06/10 02:14:56;;;;;;;12.6;9.4;;;;;;;;;;;;;
2019/06/10 02:17:21;;;;;;;15;10.6;;;;;;;;;;;;;
2019/06/10 02:19:46;;;;;;;14.3;11.5;;;;;;;;;;;;;
2019/06/10 02:22:11;;;;;;;15.6;12.1;;;;;;;;;;;;;
2019/06/10 02:24:37;;;;;;;15.4;12.6;;;;;;;;;;;;;
2019/06/10 02:27:02;;;;;;;17.9;13.4;;;;;;;;;;;;;
2019/06/10 02:29:26;;;;;;;15.5;12.9;;;;;;;;;;;;;
2019/06/10 02:31:52;;;;;;;21;14.1;;;;;;;;;;;;;
2019/06/10 02:34:19;;;;;;;22.2;15.4;;;;;;;;;;;;;
2019/06/10 02:36:45;;;;;;;20.8;15.2;;;;;;;;;;;;;
2019/06/10 02:39:10;;;;;;;25.9;17.7;;;;;;;;;;;;;
2019/06/10 02:41:35;;;;;;;29.4;20.2;;;;;;;;;;;;;
2019/06/10 02:44:01;;;;;;;25;17.7;;;;;;;;;;;;;
2019/06/10 02:46:26;;;;;;;24.5;17.8;;;;;;;;;;;;;
2019/06/10 02:48:51;;;;;;;22.6;17.3;;;;;;;;;;;;;
2019/06/10 02:51:16;;;;;;;18.9;15.3;;;;;;;;;;;;;
2019/06/10 02:53:41;;;;;;;15.6;13.2;;;;;;;;;;;;;
2019/06/10 02:56:07;;;;;;;19.4;13.9;;;;;;;;;;;;;
2019/06/10 02:58:32;;;;;;;13.3;10.9;;;;;;;;;;;;;
2019/06/10 03:00:57;;;;;;;13.6;10.8;;;;;;;;;;;;;
2019/06/10 03:03:22;;;;;;;14.6;11.6;;;;;;;;;;;;;
2019/06/10 03:05:47;;;;;;;15.9;12.1;;;;;;;;;;;;;
2019/06/10 03:08:12;;;;;;;19.8;12.5;;;;;;;;;;;;;
2019/06/10 03:10:37;;;;;;;18.5;15.1;;;;;;;;;;;;;
2019/06/10 03:13:03;;;;;;;21.5;14.8;;;;;;;;;;;;;
2019/06/10 03:15:28;;;;;;;21.9;15.1;;;;;;;;;;;;;
2019/06/10 03:17:53;;;;;;;18.4;13.9;;;;;;;;;;;;;
2019/06/10 03:20:18;;;;;;;18.2;13.1;;;;;;;;;;;;;
2019/06/10 03:22:43;;;;;;;18.4;12.5;;;;;;;;;;;;;
2019/06/10 03:25:08;;;;;;;18.7;13;;;;;;;;;;;;;
2019/06/10 03:27:33;;;;;;;16.2;12.8;;;;;;;;;;;;;
2019/06/10 03:29:59;;;;;;;17.6;12.7;;;;;;;;;;;;;
2019/06/10 03:32:24;;;;;;;17;12.7;;;;;;;;;;;;;
2019/06/10 03:34:51;;;;;;;20.8;15.6;;;;;;;;;;;;;
2019/06/10 03:37:16;;;;;;;19.6;14.1;;;;;;;;;;;;;
2019/06/10 03:39:41;;;;;;;24.4;16.9;;;;;;;;;;;;;
2019/06/10 03:42:06;;;;;;;18.3;15.1;;;;;;;;;;;;;
2019/06/10 03:44:33;;;;;;;19.2;15.4;;;;;;;;;;;;;
2019/06/10 03:46:58;;;;;;;22;16;;;;;;;;;;;;;
2019/06/10 03:49:23;;;;;;;21.8;16.2;;;;;;;;;;;;;
2019/06/10 03:51:48;;;;;;;22.3;17.1;;;;;;;;;;;;;
2019/06/10 03:54:13;;;;;;;26.3;18.8;;;;;;;;;;;;;
2019/06/10 03:56:38;;;;;;;21;15.8;;;;;;;;;;;;;
2019/06/10 03:59:03;;;;;;;16;12.7;;;;;;;;;;;;;
2019/06/10 04:02:28;;;;;;;17.2;13;;;;;;;14.42;99.56348;959.1189;;;;
2019/06/10 04:04:53;;;;;;;24.8;17;;;;;;;14.35;100;959.1967;;;;
2019/06/10 04:07:18;;;;;;;19;14.1;;;;;;;14.41;100;959.2744;;;;
2019/06/10 04:09:43;;;;;;;20.4;15.3;;;;;;;14.45;100;959.24;;;;
2019/06/10 04:12:08;;;;;;;18.4;13.7;;;;;;;14.54;100;959.2341;;;;
2019/06/10 04:14:33;;;;;;;19.9;15.2;;;;;;;14.57;100;959.3631;;;;
2019/06/10 04:16:59;;;;;;;22.7;16;;;;;;;14.48;100;959.275;;;;
2019/06/10 04:19:24;;;;;;;21.9;15.9;;;;;;;14.59;100;959.1799;;;;
2019/06/10 04:21:50;;;;;;;21.5;16.5;;;;;;;14.54;100;959.2717;;;;
2019/06/10 04:24:17;;;;;;;20.4;14.7;;;;;;;14.51;100;959.3189;;;;
2019/06/10 04:26:42;;;;;;;17.8;13.3;;;;;;;14.56;100;959.2994;;;;
2019/06/10 04:29:11;;;;;;;22.7;17.3;;;;;;;14.55;100;959.2103;;;;
2019/06/10 04:31:36;;;;;;;14.8;12;;;;;;;14.57;100;959.2473;;;;
2019/06/10 04:34:01;;;;;;;17.6;14;;;;;;;14.46;100;959.4193;;;;
2019/06/10 04:36:26;;;;;;;18.3;13.6;;;;;;;14.44;100;959.5678;;;;
2019/06/10 04:38:51;;;;;;;16.1;11.9;;;;;;;14.43;99.63574;959.5467;;;;
2019/06/10 04:41:17;;;;;;;16;11.8;;;;;;;14.6;99.94238;959.2255;;;;
2019/06/10 04:43:42;;;;;;;13.3;11.1;;;;;;;14.71;99.53809;959.0233;;;;
2019/06/10 04:46:07;;;;;;;15.5;12.1;;;;;;;14.58;99.70508;958.9749;;;;
2019/06/10 04:48:32;;;;;;;16.5;13.1;;;;;;;14.64;99.54297;958.8434;;;;
2019/06/10 04:50:57;;;;;;;16;12.6;;;;;;;14.63;99.60059;958.668;;;;
2019/06/10 04:53:22;;;;;;;13.1;10.5;;;;;;;14.79;98.30762;958.6057;;;;
2019/06/10 04:55:47;;;;;;;12.4;8.6;;;;;;;14.98;97.2207;958.6461;;;;
2019/06/10 04:58:13;;;;;;;9.4;7.9;;;;;;;15.04;95.77539;958.8931;;;;
2019/06/10 05:00:41;;;;;;;10.1;8.7;;;;;;;15.03;96.8457;959.1984;;;;
2019/06/10 05:03:06;;;;;;;10;8.3;;;;;;;14.78;96.35938;959.2078;;;;
2019/06/10 05:05:31;;;;;;;9.4;8.2;;;;;;;14.89;96.50195;959.1512;;;;
2019/06/10 05:07:56;;;;;;;9.8;8.3;;;;;;;15.12;95.89844;959.0463;;;;
2019/06/10 05:10:21;;;;;;;11.2;9.3;;;;;;;14.97;96.98535;959.0168;;;;
2019/06/10 05:12:49;;;;;;;10.6;8.9;;;;;;;14.99;95.66113;959.0961;;;;
2019/06/10 05:15:14;;;;;;;12.2;10;;;;;;;14.97;96.85547;959.1121;;;;
2019/06/10 05:17:39;;;;;;;11.5;9.7;;;;;;;14.84;98.06152;959.141;;;;
2019/06/10 05:20:21;;;;;;;11.9;9.3;;;;;;;14.93;97.60547;959.2327;;;;
2019/06/10 05:22:49;;;;;;;9.6;8.6;;;;;;;14.92;96.03906;959.2773;;;;
2019/06/10 05:25:14;;;;;;;10.5;9;;;;;;;15.05;96.07813;959.3472;;;;
2019/06/10 05:27:41;;;;;;;10;7.7;;;;;;;15.25;94.49316;959.4286;;;;
2019/06/10 05:30:06;;;;;;;9.7;8.1;;;;;;;15.19;95.17871;959.4285;;;;
2019/06/10 05:32:31;;;;;;;10;8.2;;;;;;;15.17;94.18359;959.5809;;;;
2019/06/10 05:34:56;;;;;;;12.1;10.1;;;;;;;15.11;96.57227;959.9149;;;;
2019/06/10 05:37:23;;;;;;;11.9;8.8;;;;;;;15.09;96.69629;959.9512;;;;
2019/06/10 05:39:48;;;;;;;12.5;9.3;;;;;;;15.32;95.9082;960.0094;;;;
2019/06/10 05:42:15;;;;;;;13;9.7;;;;;;;15;97.29492;960.1816;;;;
2019/06/10 05:44:40;;;;;;;10.1;8.9;;;;;;;15.07;97.08691;960.0365;;;;
2019/06/10 05:47:05;;;;;;;13.2;11;;;;;;;15.12;97.68262;960.0556;;;;
2019/06/10 05:49:32;;;;;;;14.2;11.5;;;;;;;14.9;97.79785;960.0739;;;;
2019/06/10 05:51:58;;;;;;;11;9.3;;;;;;;15.04;96.90625;959.7943;;;;
2019/06/10 05:54:25;;;;;;;11.3;9.8;;;;;;;15.18;97.35547;959.563;;;;
2019/06/10 05:56:50;;;;;;;14.3;11.6;;;;;;;15.1;97.56152;959.5381;;;;
2019/06/10 05:59:17;;;;;;;10.5;9.4;;;;;;;15.01;97.30859;959.6218;;;;
2019/06/10 06:01:42;;;;;;;10.8;8.6;;;;;;;14.97;97.27539;959.7395;;;;
2019/06/10 06:04:07;;;;;;;11.9;9.8;;;;;;;15.04;98.46875;959.6277;;;;
2019/06/10 06:06:35;;;;;;;13.7;10.4;;;;;;;15.04;98.16504;959.5117;;;;
2019/06/10 06:09:00;;;;;;;13.1;10.6;;;;;;;15.01;98.52051;959.6605;;;;
2019/06/10 06:11:29;;;;;;;13.1;10.8;;;;;;;15.05;98.79688;959.5574;;;;
2019/06/10 06:13:56;;;;;;;11.1;9.9;;;;;;;15.14;98.52734;959.5631;;;;
2019/06/10 06:16:22;;;;;;;14.1;10.9;;;;;;;15.08;98.41797;959.4338;;;;
2019/06/10 06:18:48;;;;;;;14.2;12;;;;;;;14.95;98.9502;959.3635;;;;
2019/06/10 06:21:13;;;;;;;14.4;11.9;;;;;;;14.92;100;959.5436;;;;
2019/06/10 06:23:40;;;;;;;13.1;10.3;;;;;;;14.99;99.04102;959.6414;;;;
2019/06/10 06:26:05;;;;;;;11.5;10.1;;;;;;;15.18;98.10449;959.4331;;;;
2019/06/10 06:28:34;;;;;;;13.7;11.2;;;;;;;15.2;98.33008;959.3233;;;;
2019/06/10 06:30:59;;;;;;;15.6;11.9;;;;;;;14.98;99.2373;959.4966;;;;
2019/06/10 06:33:25;;;;;;;12.8;9.7;;;;;;;15.2;97.85156;959.4017;;;;
2019/06/10 06:35:50;;;;;;;12.6;10.1;;;;;;;15.06;97.58691;959.4317;;;;
2019/06/10 06:38:19;;;;;;;16.8;12.3;;;;;;;15.01;99.63965;959.6992;;;;
2019/06/10 06:40:44;;;;;;;16.6;12.3;;;;;;;14.99;100;960.2094;;;;
2019/06/10 06:43:11;;;;;;;12.3;10;;;;;;;15.08;98.85156;960.3091;;;;
2019/06/10 06:45:37;;;;;;;14.2;11.3;;;;;;;15.34;98.74512;960.1016;;;;
2019/06/10 06:48:02;;;;;;;12.9;11.1;;;;;;;15.16;98.81152;960.1064;;;;
2019/06/10 06:50:27;;;;;;;13.4;11;;;;;;;15.14;98.80566;960.0189;;;;
2019/06/10 06:52:55;;;;;;;16.8;12.2;;;;;;;15.1;99.3457;959.9763;;;;
2019/06/10 06:55:21;;;;;;;15.7;11.1;;;;;;;15.27;99.01074;959.8049;;;;
2019/06/10 06:57:48;;;;;;;16.9;12.2;;;;;;;15.37;98.98828;959.5126;;;;
2019/06/10 07:00:14;;;;;;;14.2;12.5;;;;;;;15.4;99.08789;959.3756;;;;
2019/06/10 07:02:39;;;;;;;15.6;12.5;;;;;;;15.31;99.26367;959.5032;;;;
2019/06/10 07:05:06;;;;;;;13.7;11.4;;;;;;;15.42;99.0918;959.3819;;;;
2019/06/10 07:07:32;;;;;;;13;10.9;;;;;;;15.33;97.63477;959.2952;;;;
2019/06/10 07:10:00;;;;;;;12.3;9.7;;;;;;;15.6;96.56445;959.2516;;;;
2019/06/10 07:12:25;;;;;;;12.4;10.2;;;;;;;15.79;95.80957;959.0826;;;;
2019/06/10 07:14:51;;;;;;;14;10.5;;;;;;;15.56;97.23145;959.0598;;;;
2019/06/10 07:17:20;;;;;;;14.4;12.3;;;;;;;15.32;97.72656;958.9954;;;;
2019/06/10 07:19:46;;;;;;;14.8;12.4;;;;;;;15.49;98.36133;958.8485;;;;
2019/06/10 07:22:11;;;;;;;13.3;10.4;;;;;;;15.78;97.26953;958.9069;;;;
2019/06/10 07:24:40;;;;;;;17.2;13.1;;;;;;;15.59;98.40625;958.6859;;;;
2019/06/10 07:27:05;;;;;;;13.4;11.7;;;;;;;15.59;97.96289;958.8358;;;;
2019/06/10 07:29:32;;;;;;;15.9;12.8;;;;;;;15.67;98.19141;959.0715;;;;
2019/06/10 07:31:57;;;;;;;16.3;12.5;;;;;;;15.58;97.99414;959.1044;;;;
2019/06/10 07:34:24;;;;;;;15.5;12.2;;;;;;;15.59;98.04492;959.2059;;;;
2019/06/10 07:36:49;;;;;;;14.1;11.7;;;;;;;15.68;98.06445;959.1261;;;;
2019/06/10 07:39:15;;;;;;;17.1;13;;;;;;;15.89;96.58301;958.9568;;;;
2019/06/10 07:41:40;;;;;;;14.7;12;;;;;;;15.73;97.52637;958.9604;;;;
2019/06/10 07:44:17;;;;;;;11.6;10.4;;;;;;;16;96.23242;958.8914;;;;
2019/06/10 07:46:42;;;;;;;11.2;9.6;;;;;;;16.42;94.93262;958.8198;;;;
2019/06/10 07:49:07;;;;;;;11.5;10.1;;;;;;;16.35;92.86914;958.7823;;;;
2019/06/10 07:51:34;;;;;;;12;9.6;;;;;;;16.78;91.06348;958.7045;;;;
2019/06/10 07:53:58;;;;;;;11.2;8.7;;;;;;;16.94;90.55859;958.6702;;;;
2019/06/10 07:56:23;;;;;;;13.3;10.7;;;;;;;16.26;92.23242;958.9998;;;;
2019/06/10 07:58:49;;;;;;;14.3;10.5;;;;;;;16.73;92.85645;958.9041;;;;
2019/06/10 08:01:19;;;;;;;12.5;11.2;;;;;;;16.62;93.0918;958.8922;;;;
2019/06/10 08:03:44;;;;;;;12.8;10.5;;;;;;;16.3;93.8418;958.9135;;;;
2019/06/10 08:06:10;;;;;;;13.6;11;;;;;;;16.31;93.45801;959.1656;;;;
2019/06/10 08:08:35;;;;;;;13.7;11.7;;;;;;;16.11;95.77637;959.4455;;;;
2019/06/10 08:11:02;;;;;;;13.7;11.2;;;;;;;16.32;93.93945;959.5262;;;;
2019/06/10 08:13:26;;;;;;;13;11.2;;;;;;;16.58;92.3916;959.5145;;;;
2019/06/10 08:15:51;;;;;;;13.8;12.4;;;;;;;16.82;93.73242;959.4222;;;;
2019/06/10 08:18:17;;;;;;;13.2;11.4;;;;;;;17;92.31641;959.3689;;;;
2019/06/10 08:20:50;;;;;;;13.8;11.5;;;;;;;17.02;89.81348;959.3014;;;;
2019/06/10 08:23:07;;;;;;;10.5;9.4;;;;;;;17.88;86.36523;959.1945;;;;
2019/06/10 08:25:32;;;;;;;11.5;10.3;;;;;;;17.88;85.91895;959.1989;;;;
2019/06/10 08:27:59;;;;;;;12.7;10.6;;;;;;;17.61;88.11719;959.2316;;;;
2019/06/10 08:30:24;;;;;;;11;9.9;;;;;;;18.02;86.69727;959.1631;;;;
2019/06/10 08:32:53;;;;;;;10.5;9.3;;;;;;;17.82;86.42383;959.3414;;;;
2019/06/10 08:35:18;;;;;;;10.8;8.6;;;;;;;17.74;86.26855;959.3259;;;;
2019/06/10 08:37:44;;;;;;;9.5;8.5;;;;;;;18.43;83.1123;959.3354;;;;
2019/06/10 08:40:09;;;;;;;9.7;7.8;;;;;;;18.47;84.8457;959.43;;;;
2019/06/10 08:42:34;;;;;;;9.7;7.6;;;;;;;17.84;86.06543;959.442;;;;
2019/06/10 08:45:01;;;;;;;10;8;;;;;;;18.06;85.8252;959.3817;;;;
2019/06/10 08:47:26;;;;;;;8.9;7;;;;;;;18.38;84.25488;959.3728;;;;
2019/06/10 08:49:54;;;;;;;10.2;8.2;;;;;;;17.95;84.40625;959.3458;;;;
2019/06/10 08:52:19;;;;;;;8.7;7.6;;;;;;;18.2;83.80762;959.4758;;;;
2019/06/10 08:54:44;;;;;;;9.5;7.2;;;;;;;18.91;82.88574;959.3336;;;;
2019/06/10 08:57:10;;;;;;;9.9;8.1;;;;;;;18.39;84.05859;959.1244;;;;
2019/06/10 08:59:35;;;;;;;8.2;6.9;;;;;;;19.68;77.90527;959.0696;;;;
2019/06/10 09:02:03;;;;;;;8.1;6.5;;;;;;;19.84;75.90625;959.0084;;;;
2019/06/10 09:04:30;;;;;;;7.4;6.7;;;;;;;20.1;80.19629;958.9787;;;;
2019/06/10 09:06:55;;;;;;;12.5;7.9;;;;;;;19.11;76.70996;958.9863;;;;
2019/06/10 09:09:21;;;;;;;8.8;7.9;;;;;;;18.83;78.15527;959.0821;;;;
2019/06/10 09:11:46;;;;;;;8.9;8;;;;;;;18.48;82.95801;959.1167;;;;
2019/06/10 09:14:11;;;;;;;7.7;6.9;;;;;;;19.43;77.14258;959.1002;;;;
2019/06/10 09:16:38;;;;;;;8.9;6.7;;;;;;;19.42;77.88281;959.0675;;;;
2019/06/10 09:19:03;;;;;;;10.3;7.7;;;;;;;18.68;81.83105;959.1199;;;;
2019/06/10 09:21:28;;;;;;;8.1;7;;;;;;;19.79;80.48242;959.123;;;;
2019/06/10 09:23:53;;;;;;;8.5;7.1;;;;;;;19.98;76.00098;959.1046;;;;
2019/06/10 09:26:18;;;;;;;7.7;6.9;;;;;;;18.6;79.62012;958.9443;;;;
2019/06/10 09:28:43;;;;;;;8.2;6.4;;;;;;;19.67;76.03027;958.902;;;;
2019/06/10 09:31:10;;;;;;;7.4;6.2;;;;;;;20.26;72.08496;958.7994;;;;
2019/06/10 09:33:35;;;;;;;8.5;6.2;;;;;;;20.61;70.20703;958.7558;;;;
2019/06/10 09:36:00;;;;;;;8.5;6.8;;;;;;;20.22;74.43652;958.827;;;;
2019/06/10 09:38:28;;;;;;;7.6;6.3;;;;;;;20.17;74.58301;958.7986;;;;
2019/06/10 09:40:53;;;;;;;7.6;6.5;;;;;;;19.67;76.63086;958.8162;;;;
2019/06/10 09:43:18;;;;;;;9.2;7;;;;;;;20.37;75.6084;958.7827;;;;
2019/06/10 09:45:43;;;;;;;7.8;6.2;;;;;;;19.77;77.34473;958.8045;;;;
2019/06/10 09:48:08;;;;;;;7.5;5.9;;;;;;;19.79;77.84277;958.8285;;;;
2019/06/10 09:50:34;;;;;;;9.3;6.4;;;;;;;20.39;74.40918;958.7272;;;;
2019/06/10 09:52:58;;;;;;;8.7;6.7;;;;;;;20.07;73.95313;958.7054;;;;
2019/06/10 09:55:23;;;;;;;8.9;7.4;;;;;;;19.79;76.4873;958.7723;;;;
2019/06/10 09:57:49;;;;;;;8.3;7.1;;;;;;;20.08;74.99219;958.7003;;;;
2019/06/10 10:00:22;;;;;;;7.3;6;;;;;;;20.69;71.56445;958.7015;;;;
2019/06/10 10:02:47;;;;;;;8.6;5.9;;;;;;;19.73;74.52051;958.6203;;;;
2019/06/10 10:05:12;;;;;;;6.7;5.7;;;;;;;20.49;73.0791;958.5488;;;;
2019/06/10 10:07:39;;;;;;;7.1;5.7;;;;;;;20.82;69.67188;958.5209;;;;
2019/06/10 10:10:04;;;;;;;8.4;6.5;;;;;;;19.66;72.42285;958.5966;;;;
2019/06/10 10:12:29;;;;;;;7.9;6.7;;;;;;;19.64;73.22168;958.6297;;;;
2019/06/10 10:14:56;;;;;;;8.4;6.8;;;;;;;19.68;78.21289;958.4932;;;;
2019/06/10 10:17:20;;;;;;;6.8;6;;;;;;;20.22;72.31348;958.5061;;;;
2019/06/10 10:19:45;;;;;;;5.9;5.3;;;;;;;21.6;67.99609;958.6519;;;;
2019/06/10 10:22:15;;;;;;;7.5;6.1;;;;;;;20.74;70.8877;958.7546;;;;
2019/06/10 10:24:40;;;;;;;8.1;6.2;;;;;;;20.75;75.50879;958.8173;;;;
2019/06/10 10:27:06;;;;;;;8.3;6.6;;;;;;;21.15;73.44824;958.6277;;;;
2019/06/10 10:29:31;;;;;;;7.8;5.5;;;;;;;21.72;72.08496;958.4249;;;;
2019/06/10 10:31:56;;;;;;;8.3;6.1;;;;;;;21.03;70.18945;958.312;;;;
2019/06/10 10:34:21;;;;;;;7.3;5.7;;;;;;;21.77;65.42969;958.1912;;;;
2019/06/10 10:36:46;;;;;;;7.3;5.6;;;;;;;22.49;65.58301;958.1713;;;;
2019/06/10 10:39:14;;;;;;;7.7;6.4;;;;;;;21.85;66.12891;958.2434;;;;
2019/06/10 10:41:39;;;;;;;6.5;5.8;;;;;;;20.55;71.96582;958.259;;;;
2019/06/10 10:44:05;;;;;;;7.6;5.8;;;;;;;21.55;65.7998;958.2943;;;;
2019/06/10 10:46:30;;;;;;;8.2;5.9;;;;;;;21.93;66.75586;958.3138;;;;
2019/06/10 10:48:55;;;;;;;6.7;5.9;;;;;;;22.53;63.54883;958.2172;;;;
2019/06/10 10:51:23;;;;;;;7.9;5.7;;;;;;;22.28;64.78125;958.1995;;;;
2019/06/10 10:53:48;;;;;;;7.1;6.1;;;;;;;20.58;68.80762;958.2401;;;;
2019/06/10 10:56:13;;;;;;;8.5;6.3;;;;;;;21.66;65.30664;958.2899;;;;
2019/06/10 10:58:38;;;;;;;8.1;6.7;;;;;;;20.65;70.08203;958.282;;;;
2019/06/10 11:01:03;;;;;;;7.2;6.5;;;;;;;21.04;69.91895;958.2026;;;;
2019/06/10 11:03:41;;;;;;;7.6;6.3;;;;;;;21.35;66.51465;958.1816;;;;
2019/06/10 11:06:07;;;;;;;9.1;6.3;;;;;;;20.91;67.86621;957.923;;;;
2019/06/10 11:08:32;;;;;;;8.9;6.5;;;;;;;21.31;65.38574;957.8315;;;;
2019/06/10 11:10:58;;;;;;;8.5;6.1;;;;;;;21.12;66.58691;957.8166;;;;
2019/06/10 11:13:24;;;;;;;6.6;5.8;;;;;;;21.65;66.8916;957.658;;;;
2019/06/10 11:15:57;;;;;;;7.7;6.3;;;;;;;21.71;66.9707;957.5977;;;;
2019/06/10 11:18:22;;;;;;;8.7;6.2;;;;;;;21.65;68.22852;957.5717;;;;
2019/06/10 11:20:49;;;;;;;8.8;6.8;;;;;;;20.98;66.83789;957.5474;;;;
2019/06/10 11:23:13;;;;;;;7.3;6.1;;;;;;;22.98;66.53418;957.5408;;;;
2019/06/10 11:25:38;;;;;;;6.2;5.4;;;;;;;23.33;62.99707;957.4944;;;;
2019/06/10 11:28:03;;;;;;;9.2;5.8;;;;;;;23.31;61.29785;957.4187;;;;
2019/06/10 11:30:28;;;;;;;6.3;5.4;;;;;;;23.34;63.70117;957.3145;;;;
2019/06/10 11:33:09;;;;;;;7.7;5.9;;;;;;;23.28;60.91406;957.2877;;;;
2019/06/10 11:35:34;;;;;;;8.6;5.8;;;;;;;23.48;64.6709;957.1655;;;;
2019/06/10 11:37:59;;;;;;;8.5;5.4;;;;;;;24.23;57.55469;957.1473;;;;
2019/06/10 11:40:24;;;;;;;6.9;5.7;;;;;;;23.88;57.73535;957.1609;;;;
2019/06/10 11:42:49;;;;;;;8.1;5.9;;;;;;;23.76;59.11133;957.0934;;;;
2019/06/10 11:45:15;;;;;;;8.1;5.5;;;;;;;25;56.46094;957.014;;;;
2019/06/10 11:47:42;;;;;;;6.3;5.1;;;;;;;25.47;59.48242;956.8983;;;;
2019/06/10 11:50:11;;;;;;;6.1;5.3;;;;;;;24.14;59.69824;956.9127;;;;
2019/06/10 11:52:38;;;;;;;9.2;5.8;;;;;;;23.71;58.80664;956.8839;;;;
2019/06/10 11:55:03;;;;;;;6.7;5.3;;;;;;;24.4;63.56641;956.9444;;;;
2019/06/10 11:57:28;;;;;;;8.5;6.9;;;;;;;22.67;61.375;956.9122;;;;
2019/06/10 11:59:57;;;;;;;6.6;5.2;;;;;;;24.78;58.21094;956.8578;;;;
2019/06/10 12:02:22;;;;;;;7.1;5.7;;;;;;;25.22;57.99219;956.868;;;;
2019/06/10 12:04:48;;;;;;;8.1;6.2;;;;;;;25.45;56.15918;956.8025;;;;
2019/06/10 12:07:13;;;;;;;11;5.6;;;;;;;26.38;55.10645;956.8586;;;;
2019/06/10 12:09:38;;;;;;;8;5.5;;;;;;;26.7;54.09082;956.7553;;;;
2019/06/10 12:12:06;;;;;;;7.7;5.8;;;;;;;27.06;50.20605;956.6428;;;;
2019/06/10 12:14:32;;;;;;;9.5;6.7;;;;;;;26.74;51.42578;956.6656;;;;
2019/06/10 12:16:57;;;;;;;9.2;7.5;;;;;;;25.28;53.66895;956.7477;;;;
2019/06/10 12:19:22;;;;;;;7;5.8;;;;;;;27.24;51.67578;956.7639;;;;
2019/06/10 12:21:48;;;;;;;10.6;6.8;;;;;;;27.18;47.90625;956.6131;;;;
2019/06/10 12:24:14;;;;;;;7.9;6.2;;;;;;;26.39;53.37305;956.5858;;;;
2019/06/10 12:26:39;;;;;;;8.4;6.6;;;;;;;26.63;53.125;956.426;;;;
2019/06/10 12:29:04;;;;;;;8.1;5.8;;;;;;;26.51;53.80566;956.504;;;;
2019/06/10 12:31:32;;;;;;;9;6.8;;;;;;;27.05;50.33594;956.3563;;;;
2019/06/10 12:33:57;;;;;;;7.9;6.2;;;;;;;26.78;50.37793;956.3686;;;;
2019/06/10 12:36:22;;;;;;;9.8;5.8;;;;;;;26.55;52.85254;956.3976;;;;
2019/06/10 12:38:47;;;;;;;7.7;5.3;;;;;;;27.15;47.04004;956.4086;;;;
2019/06/10 12:41:12;;;;;;;7.5;4.9;;;;;;;28.4;45.84961;956.2687;;;;
2019/06/10 12:43:37;;;;;;;9.8;4.9;;;;;;;27.02;50.36816;956.2647;;;;
2019/06/10 12:46:05;;;;;;;6.8;5.1;;;;;;;26.97;49.7041;956.1956;;;;
2019/06/10 12:48:30;;;;;;;9.6;6.3;;;;;;;26.41;51.25781;956.2983;;;;
2019/06/10 12:50:56;;;;;;;8.7;6.9;;;;;;;26.26;52.9502;956.3161;;;;
2019/06/10 12:53:21;;;;;;;9.6;5.8;;;;;;;27.51;46.94531;956.1953;;;;
2019/06/10 12:55:46;;;;;;;10.1;6.8;;;;;;;28.1;43.88574;955.9944;;;;
2019/06/10 12:58:11;;;;;;;9.5;6.9;;;;;;;25.64;54.21484;955.9127;;;;
2019/06/10 13:00:36;;;;;;;8.6;5.7;;;;;;;27.41;48.77051;955.8176;;;;
2019/06/10 13:03:04;;;;;;;8.5;5.5;;;;;;;28.89;43.50586;955.8576;;;;
2019/06/10 13:05:29;;;;;;;6.8;5.1;;;;;;;28.1;46.29883;955.8155;;;;
2019/06/10 13:07:56;;;;;;;7;5.6;;;;;;;29.53;41.91699;955.925;;;;
2019/06/10 13:10:21;;;;;;;9.9;5.5;;;;;;;28.87;44.56152;955.9938;;;;
2019/06/10 13:12:46;;;;;;;7.4;5.5;;;;;;;28.07;48.28906;955.9174;;;;
2019/06/10 13:15:15;;;;;;;6;5.4;;;;;;;29.73;41.92383;955.9494;;;;
2019/06/10 13:17:40;;;;;;;9.3;5.3;;;;;;;28.66;45.05762;955.9362;;;;
2019/06/10 13:20:05;;;;;;;8.8;5.8;;;;;;;27.01;50.3916;955.7986;;;;
2019/06/10 13:22:30;;;;;;;6.5;5.5;;;;;;;29.33;43.64453;955.7083;;;;
2019/06/10 13:24:55;;;;;;;7.4;5.4;;;;;;;27.73;47.29297;955.6911;;;;
2019/06/10 13:27:20;;;;;;;8.7;5.8;;;;;;;27.44;49.02441;955.7436;;;;
2019/06/10 13:29:47;;;;;;;9.6;6.2;;;;;;;28.34;45.62793;955.6256;;;;
2019/06/10 13:32:13;;;;;;;8.9;5.8;;;;;;;27.77;46.66113;955.4066;;;;
2019/06/10 13:34:39;;;;;;;9.9;5.5;;;;;;;28.66;44.74609;955.2592;;;;
2019/06/10 13:37:04;;;;;;;7.6;5.2;;;;;;;27.78;47.79004;955.3472;;;;
2019/06/10 13:39:30;;;;;;;7.3;4.8;;;;;;;28.07;46.95605;955.2333;;;;
2019/06/10 13:41:56;;;;;;;6.4;4.3;;;;;;;29.06;44.24414;955.2465;;;;
2019/06/10 13:44:23;;;;;;;6.6;4.8;;;;;;;29.86;42.14063;955.2438;;;;
2019/06/10 13:46:49;;;;;;;7.7;5.1;;;;;;;27.61;46.69336;955.2028;;;;
2019/06/10 13:49:17;;;;;;;8.3;6;;;;;;;26.74;49.21094;955.1689;;;;
2019/06/10 13:51:41;;;;;;;9.3;6.1;;;;;;;25.98;51.06543;955.0881;;;;
2019/06/10 13:54:06;;;;;;;10.8;6;;;;;;;24.95;55.99023;954.9572;;;;
2019/06/10 13:56:32;;;;;;;8.8;6;;;;;;;25.31;54.4834;954.7826;;;;
2019/06/10 13:58:57;;;;;;;8.3;5.5;;;;;;;25.12;53.63867;954.6797;;;;
2019/06/10 14:01:22;;;;;;;7.1;5.3;;;;;;;25.29;54.48242;954.7369;;;;
2019/06/10 14:03:47;;;;;;;6.7;5.4;;;;;;;25.07;54.2168;954.7581;;;;
2019/06/10 14:06:12;;;;;;;8.3;4.6;;;;;;;25.01;54.28223;954.7374;;;;
2019/06/10 14:08:37;;;;;;;7.7;4.4;;;;;;;25;54.00488;954.7698;;;;
2019/06/10 14:11:02;;;;;;;7.1;4.8;;;;;;;24.73;55.35547;954.7166;;;;
2019/06/10 14:13:32;;;;;;;6.8;5.6;;;;;;;24.96;54.2627;954.7424;;;;
2019/06/10 14:15:57;;;;;;;6.7;5.1;;;;;;;24.64;56.09375;954.8409;;;;
2019/06/10 14:18:22;;;;;;;6.3;4.7;;;;;;;24.74;56.3457;954.9233;;;;
2019/06/10 14:20:50;;;;;;;8;4.9;;;;;;;24.18;57.56055;955.0287;;;;
2019/06/10 14:23:15;;;;;;;8.7;5.3;;;;;;;24.17;56.89258;955.1906;;;;
2019/06/10 14:25:39;;;;;;;6.4;4.8;;;;;;;23.54;59.25977;955.3658;;;;
2019/06/10 14:28:05;;;;;;;6.3;4.4;;;;;;;23.16;61.05078;955.2972;;;;
2019/06/10 14:30:30;;;;;;;6.9;4.2;;;;;;;22.93;60.22363;955.2223;;;;
2019/06/10 14:32:55;;;;;;;7.5;4;;;;;;;22.7;60.4541;955.2242;;;;
2019/06/10 14:35:23;;;;;;;4.7;3.3;;;;;;;22.59;59.25293;955.2769;;;;
2019/06/10 14:37:47;;;;;;;7.2;3.5;;;;;;;22.4;59.65332;955.2645;;;;
2019/06/10 14:40:12;;;;;;;7.2;3.9;;;;;;;22.2;60.18359;955.3709;;;;
2019/06/10 14:42:37;;;;;;;7.1;3.8;;;;;;;22.1;59.8623;955.2172;;;;
2019/06/10 14:45:04;;;;;;;5.5;3.4;;;;;;;22.09;60.94043;954.8353;;;;
2019/06/10 14:47:30;;;;;;;5.3;3.4;;;;;;;22.17;60.87891;954.7748;;;;
2019/06/10 14:49:55;;;;;;;7.2;3.7;;;;;;;21.9;62.4043;955.0012;;;;
2019/06/10 14:52:20;;;;;;;6.9;3.7;;;;;;;21.81;63.30469;955.236;;;;
2019/06/10 14:54:47;;;;;;;6;3.7;;;;;;;21.78;63.7627;955.4365;;;;
2019/06/10 14:57:12;;;;;;;7.7;3.9;;;;;;;21.75;65.0127;955.4373;;;;
2019/06/10 14:59:37;;;;;;;6.7;4.3;;;;;;;21.64;64.29688;955.3719;;;;
2019/06/10 15:02:05;;;;;;;6;4.5;;;;;;;21.38;65.24121;955.2827;;;;
2019/06/10 15:04:32;;;;;;;8.3;5.2;;;;;;;20.93;67.73926;955.2305;;;;
2019/06/10 15:06:57;;;;;;;8.1;4.3;;;;;;;21.12;66.83398;955.115;;;;
2019/06/10 15:09:22;;;;;;;8.4;4.4;;;;;;;21.11;67.61328;955.207;;;;
2019/06/10 15:11:47;;;;;;;8;5;;;;;;;20.9;67.21582;955.3694;;;;
2019/06/10 15:14:14;;;;;;;9.9;5.7;;;;;;;20.57;68.53516;955.5251;;;;
2019/06/10 15:16:39;;;;;;;9.7;5.3;;;;;;;20.33;70.11426;956.0421;;;;
2019/06/10 15:19:09;;;;;;;8.8;5.7;;;;;;;20.14;72.10156;956.3477;;;;
2019/06/10 15:21:34;;;;;;;10.1;5.9;;;;;;;19.68;75.08984;956.8703;;;;
2019/06/10 15:23:59;;;;;;;9.4;5.8;;;;;;;19.25;78.28809;956.9856;;;;